Eveleth, MN

7:32 PM CDT on July 25, 2014 (GMT -0500)
Eveleth-Virginia Municipal (KEVM) Elev 1378 ft | 47.43 °N, 92.50 °W | Change Station

Current weather conditions updated 20 minutes ago

Overcast
Overcast
72 °F
Feels Like 72 °F
N
5
Wind Variable Wind from SSE

Tomorrow is forecast to be Much Warmer than today.

Today
High -- | Low -- °F
--% Chance of Precip.
Yesterday
High -- | Low -- °F
Precip. -- in
5:39 AM 8:52 PM
Waning Crescent, 1% visible
Pressure 29.78 in
Visibility 10.0 miles
Clouds Scattered Clouds 2000 ft
Mostly Cloudy 2500 ft
Overcast 4600 ft
Dew Point 66 °F
Humidity 83%
Rainfall 0.00 in
Snow Depth Not available.
UV 0 out of 12
Pollen 3.60 out of 12
Air Quality Not available.
Flu Activity Not available.
METAR KEVM 260012Z AUTO 16004KT 10SM SCT020 BKN025 OVC046 22/19 A2978 RMK AO2

More Conditions Fewer Conditions

Pressure 29.78 in
Visibility 10.0 miles
Clouds Scattered Clouds 2000 ft
Mostly Cloudy 2500 ft
Overcast 4600 ft
Dew Point 66 °F
Humidity 83%
Rainfall 0.00 in
Snow Depth Not available.
UV 0 out of 12
Pollen 3.60 out of 12
Air Quality Not available.
Flu Activity Not available.
METAR KEVM 260012Z AUTO 16004KT 10SM SCT020 BKN025 OVC046 22/19 A2978 RMK AO2

More Conditions Fewer Conditions

10-Day Weather Forecast

Almanac

Astronomy

Jul. 25, 2014 Rise Set
Actual Time 5:39 AM CDT 8:52 PM CDT
Civil Twilight 5:02 AM CDT 9:29 PM CDT
Nautical Twilight 4:14 AM CDT 10:17 PM CDT
Astronomical Twilight 3:13 AM CDT 11:17 PM CDT
Moon 4:42 AM CDT (7/25) 7:45 PM CDT (7/25)
Length of Visible Light 16h 27m
Length of Day
15h 13m
Tomorrow will be 2m 23s shorter.
Waning Crescent, 1% of the Moon is Illuminated
Today
Waning Crescent
Jul 26
New
Aug 3
First Quarter
Aug 10
Full
Aug 17
Last Quarter

Today's Extremes

State Highs State Lows

Community

WunderPhotos

Upload Photos

1,737,451 photos uploaded!

Nearby

Snow Depth

Station Depth Elevation
No new snow has been reported.

Earthquake Activity

City Distance Mag. Time & Date
No recent earthquake activity has been reported nearby.
Minimum magnitude displayed is 2.5.

Coastal Water Temperatures

Place Temperature
No Stations Reporting

Nearby Weather Stations

Station Location Temp. Heat Index Dew Point Humidity Wind Precip. Elev Updated Type
Leisure Lake,Mn, Makinen, MN 72.3 °F 72 °F 66 °F 81% West  at  0.0 mph - / hr 1427 ft 7:26 PM CDT Normal
RAWS HIBBING MN, Hibbing, MN 74 °F 75 °F 66 °F 76% North  at  0 mph 0.00 in / hr 1350 ft 6:07 PM CDT MADIS

Show More Stations Show Fewer Stations